Time;durP1;ratioP1;P1;durP2;ratioP2;P2;SDS_P1;SDS_P2;PMS_P1;PMS_P2;Temp;Humidity;BMP_temperature;BMP_pressure;BME280_temperature;BME280_humidity;BME280_pressure;Samples;Min_cycle;Max_cycle;Signal;HPM_P1;HPM_P2
2023/09/27 00:04:12;;;;;;;5.97;1.35;;;;;;;12.51;82.98;102284.88;10435181;28;20096;-86
2023/09/27 00:09:15;;;;;;;2.53;1.60;;;;;;;12.53;83.37;102288.22;10456824;28;20037;-85
2023/09/27 00:14:18;;;;;;;2.65;1.40;;;;;;;12.47;83.28;102289.19;10461702;28;20131;-85
2023/09/27 00:19:22;;;;;;;1.77;1.20;;;;;;;12.34;83.58;102284.91;10501195;28;20504;-85
2023/09/27 00:24:24;;;;;;;2.63;1.35;;;;;;;12.34;84.37;102283.00;10464101;28;20032;-85
2023/09/27 00:29:27;;;;;;;3.10;1.52;;;;;;;12.29;84.47;102280.13;10495109;28;20049;-85
2023/09/27 00:34:30;;;;;;;3.80;1.98;;;;;;;12.29;85.12;102282.06;10485580;28;20568;-84
2023/09/27 00:39:36;;;;;;;2.90;1.52;;;;;;;12.15;85.52;102298.09;10453543;28;20029;-85
2023/09/27 00:44:40;;;;;;;4.20;1.70;;;;;;;12.14;86.25;102307.41;10461710;28;20041;-85
2023/09/27 00:49:44;;;;;;;3.50;1.52;;;;;;;12.08;86.53;102294.69;10473668;28;20053;-85
2023/09/27 00:54:47;;;;;;;2.40;1.60;;;;;;;12.08;86.91;102294.69;10488449;28;20406;-84
2023/09/27 00:59:52;;;;;;;1.45;1.35;;;;;;;12.02;86.46;102295.69;10436703;28;20503;-85
2023/09/27 01:04:55;;;;;;;5.72;1.67;;;;;;;11.95;87.32;102295.84;10472078;28;20047;-85
2023/09/27 01:09:57;;;;;;;3.05;1.50;;;;;;;11.91;87.53;102278.16;10461630;28;20041;-84
2023/09/27 01:15:01;;;;;;;2.15;1.40;;;;;;;11.89;88.23;102288.59;10456538;28;20037;-85
2023/09/27 01:20:12;;;;;;;2.28;1.30;;;;;;;11.97;87.79;102290.09;10486889;28;20052;-85
2023/09/27 01:25:17;;;;;;;2.67;1.45;;;;;;;11.94;86.93;102298.84;10443551;28;20059;-84
2023/09/27 01:30:19;;;;;;;3.20;1.50;;;;;;;11.97;87.62;102301.09;10483965;28;20040;-84
2023/09/27 01:35:22;;;;;;;2.22;1.40;;;;;;;11.94;87.09;102305.19;10510257;28;20048;-85
2023/09/27 01:40:31;;;;;;;4.32;1.58;;;;;;;11.89;87.26;102296.84;10488857;28;20047;-84
2023/09/27 01:45:35;;;;;;;4.10;1.45;;;;;;;11.75;87.87;102287.22;10480442;28;20037;-84
2023/09/27 01:50:37;;;;;;;3.38;1.70;;;;;;;11.85;87.75;102290.19;10496122;28;20033;-85
2023/09/27 01:55:41;;;;;;;4.22;1.77;;;;;;;11.83;88.22;102292.34;10499332;28;20515;-84
2023/09/27 02:00:44;;;;;;;2.42;1.50;;;;;;;11.75;88.01;102285.28;10490531;28;20355;-84
2023/09/27 02:05:50;;;;;;;3.60;2.00;;;;;;;11.77;88.32;102282.28;10525822;28;20041;-84
2023/09/27 02:10:52;;;;;;;2.60;1.60;;;;;;;11.69;88.52;102278.06;10527602;28;20036;-84
2023/09/27 02:15:55;;;;;;;3.67;1.50;;;;;;;11.72;88.36;102273.97;10548830;28;20507;-84
2023/09/27 02:20:57;;;;;;;3.35;1.95;;;;;;;11.76;88.63;102270.47;10511566;28;20037;-85
2023/09/27 02:26:00;;;;;;;2.83;1.52;;;;;;;11.76;88.28;102266.88;10541219;28;20036;-84
2023/09/27 02:31:08;;;;;;;4.70;2.08;;;;;;;11.73;88.15;102259.97;10504787;28;20731;-84
2023/09/27 02:36:11;;;;;;;4.00;1.58;;;;;;;11.67;87.82;102263.72;10547142;28;20044;-84
2023/09/27 02:41:13;;;;;;;3.25;1.63;;;;;;;11.60;88.61;102264.94;10498759;28;20043;-84
2023/09/27 02:46:17;;;;;;;3.70;1.67;;;;;;;11.63;88.36;102258.97;10540114;28;20435;-84
2023/09/27 02:51:20;;;;;;;3.58;1.60;;;;;;;11.71;88.00;102262.13;10522155;28;20041;-84
2023/09/27 02:56:22;;;;;;;3.58;2.10;;;;;;;11.66;88.02;102266.72;10536301;28;20044;-84
2023/09/27 03:01:25;;;;;;;3.78;2.40;;;;;;;11.70;88.34;102254.97;10507747;28;20032;-84
2023/09/27 03:06:27;;;;;;;3.20;2.15;;;;;;;11.64;88.33;102258.72;10501745;28;20042;-85
2023/09/27 03:11:29;;;;;;;7.45;2.17;;;;;;;11.58;87.74;102256.13;10500076;28;20127;-85
2023/09/27 03:16:32;;;;;;;4.90;2.17;;;;;;;11.56;88.49;102264.63;10534860;28;20047;-85
2023/09/27 03:21:35;;;;;;;3.42;2.47;;;;;;;11.47;88.15;102266.94;10519167;28;20037;-85
2023/09/27 03:26:37;;;;;;;3.28;1.88;;;;;;;11.51;88.64;102266.44;10518441;28;20033;-84
2023/09/27 03:31:39;;;;;;;1.92;1.50;;;;;;;11.63;88.48;102270.81;10512751;28;20044;-85
2023/09/27 03:36:44;;;;;;;3.40;2.20;;;;;;;11.57;88.89;102260.78;10505474;28;20415;-84
2023/09/27 03:41:46;;;;;;;3.97;2.17;;;;;;;11.58;88.52;102265.19;10511736;28;20029;-84
2023/09/27 03:46:48;;;;;;;5.28;2.17;;;;;;;11.58;88.36;102264.38;10509119;28;20043;-85
2023/09/27 03:51:54;;;;;;;5.18;2.10;;;;;;;11.51;88.64;102275.53;10510429;28;20059;-85
2023/09/27 03:56:56;;;;;;;3.70;2.08;;;;;;;11.53;88.29;102269.78;10514425;28;20055;-85
2023/09/27 04:01:59;;;;;;;5.32;2.50;;;;;;;11.42;88.01;102275.09;10506528;28;20045;-86
2023/09/27 04:07:01;;;;;;;5.10;2.72;;;;;;;11.43;88.97;102268.50;10506261;28;20461;-84
2023/09/27 04:12:04;;;;;;;4.50;2.55;;;;;;;11.51;88.19;102274.69;10506536;28;20042;-86
2023/09/27 04:17:17;;;;;;;6.10;2.60;;;;;;;11.94;87.32;102266.66;10497223;28;20051;-86
2023/09/27 04:22:20;;;;;;;2.60;2.08;;;;;;;12.55;84.49;102264.81;10531957;28;20044;-85
2023/09/27 04:27:23;;;;;;;4.78;2.15;;;;;;;13.13;80.34;102270.78;10534697;28;20032;-86
2023/09/27 04:32:26;;;;;;;4.00;2.03;;;;;;;13.92;77.71;102264.69;10521652;28;20040;-86
2023/09/27 04:37:28;;;;;;;5.65;2.58;;;;;;;14.52;75.09;102267.03;10509389;28;20032;-86
2023/09/27 04:42:32;;;;;;;5.15;2.30;;;;;;;15.05;71.87;102273.34;10476719;28;20040;-85
2023/09/27 04:47:34;;;;;;;6.65;2.60;;;;;;;15.55;70.20;102272.63;10501052;28;20042;-85
2023/09/27 04:52:38;;;;;;;4.25;2.42;;;;;;;15.42;69.24;102272.34;10500994;28;20033;-85
2023/09/27 04:57:41;;;;;;;4.60;2.45;;;;;;;15.79;68.36;102277.66;10492332;28;20136;-85
2023/09/27 05:02:44;;;;;;;5.35;2.60;;;;;;;16.05;67.18;102265.47;10485346;28;20491;-85
2023/09/27 05:07:50;;;;;;;6.72;2.58;;;;;;;15.98;66.57;102273.25;10486377;28;20097;-86
2023/09/27 05:12:53;;;;;;;9.25;3.10;;;;;;;16.26;66.06;102280.13;10493630;28;20069;-85
2023/09/27 05:17:55;;;;;;;5.80;2.70;;;;;;;16.67;64.92;102278.16;10513063;28;20407;-85
2023/09/27 05:22:59;;;;;;;4.90;2.67;;;;;;;17.55;62.44;102273.81;10505945;28;20033;-86
2023/09/27 05:28:02;;;;;;;6.13;3.17;;;;;;;17.40;61.98;102281.13;10503798;28;20044;-86
2023/09/27 05:33:05;;;;;;;6.88;3.95;;;;;;;16.81;64.29;102278.34;10456292;28;20572;-86
2023/09/27 05:38:08;;;;;;;5.72;3.13;;;;;;;17.65;61.47;102280.09;10536392;28;20053;-85
2023/09/27 05:43:11;;;;;;;8.35;3.40;;;;;;;17.97;60.99;102284.31;10510624;28;20538;-85
2023/09/27 05:48:22;;;;;;;7.50;3.67;;;;;;;18.24;58.74;102286.59;10502696;28;20037;-85
2023/09/27 05:53:28;;;;;;;7.78;3.55;;;;;;;18.50;57.49;102287.13;10470370;28;20152;-85
2023/09/27 05:58:35;;;;;;;7.15;3.35;;;;;;;18.32;58.43;102292.31;10486524;28;20044;-85
2023/09/27 06:03:38;;;;;;;;;;;;;;;16.45;63.06;102294.22;10506254;28;20047;-85
2023/09/27 06:08:44;;;;;;;7.90;3.92;;;;;;;16.68;63.77;102285.34;10506407;28;20387;-85
2023/09/27 06:13:53;;;;;;;9.55;4.03;;;;;;;16.24;65.33;102287.91;10501802;28;20131;-86
2023/09/27 06:18:56;;;;;;;7.30;3.88;;;;;;;15.74;66.63;102292.34;10503107;28;20037;-85
2023/09/27 06:23:59;;;;;;;7.97;3.95;;;;;;;16.69;64.03;102292.53;10529733;28;20043;-86
2023/09/27 06:29:02;;;;;;;8.45;3.92;;;;;;;16.20;64.96;102295.09;10505418;28;20036;-85
2023/09/27 06:34:05;;;;;;;7.75;3.30;;;;;;;16.47;65.37;102295.59;10507849;28;20040;-85
2023/09/27 06:39:19;;;;;;;9.45;3.67;;;;;;;16.52;65.30;102294.78;10510343;28;20044;-86
2023/09/27 06:44:22;;;;;;;8.90;3.75;;;;;;;16.23;66.07;102300.09;10511628;28;20036;-85
2023/09/27 06:49:24;;;;;;;8.90;3.75;;;;;;;16.15;66.49;102293.19;10527539;28;20040;-87
2023/09/27 06:54:27;;;;;;;7.72;4.03;;;;;;;16.33;66.15;102294.53;10524252;28;20052;-88
2023/09/27 06:59:32;;;;;;;6.13;3.97;;;;;;;16.96;64.45;102296.88;10476550;28;20043;-89
2023/09/27 07:04:36;;;;;;;8.75;3.60;;;;;;;17.14;63.42;102290.69;10464747;28;20396;-88
2023/09/27 07:09:40;;;;;;;7.80;3.60;;;;;;;17.42;62.52;102295.53;10528150;28;20036;-87
2023/09/27 07:14:43;;;;;;;10.00;3.67;;;;;;;16.91;62.64;102294.13;10530213;28;20044;-88
2023/09/27 07:19:50;;;;;;;9.05;3.58;;;;;;;16.71;63.55;102289.50;10529637;28;20516;-89
2023/09/27 07:24:52;;;;;;;7.85;3.92;;;;;;;16.85;63.41;102279.47;10521275;28;20072;-93
2023/09/27 07:29:55;;;;;;;7.55;3.63;;;;;;;16.82;62.89;102288.31;10484640;28;20079;-88
2023/09/27 07:34:58;;;;;;;6.45;3.53;;;;;;;16.80;62.77;102288.59;10530289;28;20058;-89
2023/09/27 07:40:01;;;;;;;5.25;2.95;;;;;;;18.76;56.87;102285.78;10528465;28;20059;-95
2023/09/27 07:45:20;;;;;;;6.05;2.63;;;;;;;20.57;52.46;102273.22;10511801;28;20051;-86
2023/09/27 07:50:28;;;;;;;10.57;3.30;;;;;;;22.25;47.74;102268.22;10528145;28;20055;-82
2023/09/27 07:55:33;;;;;;;8.35;2.60;;;;;;;21.82;49.04;102258.69;10542904;28;20051;-83
2023/09/27 08:00:36;;;;;;;6.18;3.17;;;;;;;22.13;48.74;102272.75;10508302;28;20118;-86
2023/09/27 08:05:43;;;;;;;5.90;2.88;;;;;;;21.57;48.61;102261.00;10513242;28;20055;-88
2023/09/27 08:10:47;;;;;;;7.38;3.75;;;;;;;20.89;50.51;102258.34;10494971;28;20044;-86
2023/09/27 08:15:49;;;;;;;9.95;4.00;;;;;;;22.31;46.36;102249.31;10525486;28;20047;-85
2023/09/27 08:20:54;;;;;;;11.65;3.75;;;;;;;23.98;44.04;102246.16;10525122;28;20414;-85
2023/09/27 08:25:56;;;;;;;5.93;2.83;;;;;;;23.56;43.55;102250.59;10543207;28;20055;-87
2023/09/27 08:30:59;;;;;;;6.45;2.70;;;;;;;23.77;42.63;102254.41;10512142;28;20044;-92
2023/09/27 08:36:02;;;;;;;7.72;3.67;;;;;;;23.14;43.94;102255.88;10503841;28;20050;-85
2023/09/27 08:41:04;;;;;;;5.20;2.63;;;;;;;22.76;44.83;102243.56;10533163;28;20046;-86
2023/09/27 08:46:06;;;;;;;3.28;2.03;;;;;;;23.30;42.87;102235.78;10550694;28;20032;-89
2023/09/27 08:51:09;;;;;;;5.55;2.25;;;;;;;22.47;44.58;102244.13;10511475;28;20053;-88
2023/09/27 08:56:14;;;;;;;3.35;2.10;;;;;;;20.52;47.74;102248.22;10505702;28;20051;-87
2023/09/27 09:01:16;;;;;;;5.20;2.17;;;;;;;18.70;52.12;102258.31;10522500;28;20036;-88
2023/09/27 09:06:19;;;;;;;4.25;2.03;;;;;;;18.13;53.75;102244.16;10519066;28;20038;-87
2023/09/27 09:11:22;;;;;;;2.17;1.65;;;;;;;17.96;53.41;102236.28;10541306;28;20041;-87
2023/09/27 09:16:24;;;;;;;2.63;1.85;;;;;;;18.24;53.61;102226.28;10507127;28;20041;-86
2023/09/27 09:21:27;;;;;;;4.50;2.30;;;;;;;18.22;53.52;102225.75;10491424;28;20044;-87
2023/09/27 09:26:29;;;;;;;4.43;2.00;;;;;;;18.13;54.39;102227.50;10492460;28;20045;-87
2023/09/27 09:31:33;;;;;;;4.28;2.10;;;;;;;18.03;54.14;102213.69;10502954;28;20043;-87
2023/09/27 09:36:36;;;;;;;5.93;2.20;;;;;;;17.85;53.47;102211.66;10505890;28;20041;-86
2023/09/27 09:41:53;;;;;;;2.78;1.65;;;;;;;17.53;52.64;102213.03;10507545;28;20051;-87
2023/09/27 09:47:11;;;;;;;3.90;2.03;;;;;;;17.62;52.57;102227.94;10498681;28;20045;-86
2023/09/27 09:52:14;;;;;;;4.07;1.50;;;;;;;17.64;51.42;102214.59;10484126;28;20041;-87
2023/09/27 09:57:20;;;;;;;4.20;1.40;;;;;;;17.45;52.23;102210.84;10506987;28;20516;-85
2023/09/27 10:02:27;;;;;;;3.80;1.85;;;;;;;17.34;51.37;102200.94;10488950;28;20045;-87
2023/09/27 10:07:29;;;;;;;3.03;1.73;;;;;;;17.55;50.23;102196.09;10489895;28;20036;-86
2023/09/27 10:12:32;;;;;;;2.42;1.35;;;;;;;17.47;50.05;102189.19;10523810;28;20396;-87
2023/09/27 10:17:34;;;;;;;4.18;1.52;;;;;;;17.55;50.88;102188.59;10488562;28;20044;-87
2023/09/27 10:22:37;;;;;;;2.30;1.48;;;;;;;17.64;50.90;102175.72;10471490;28;20056;-87
2023/09/27 10:27:58;;;;;;;2.50;1.42;;;;;;;17.80;51.49;102167.28;10471708;28;20064;-87
2023/09/27 10:33:22;;;;;;;2.72;1.27;;;;;;;17.34;52.58;102168.47;10507142;28;20044;-87
2023/09/27 10:38:24;;;;;;;3.67;1.75;;;;;;;17.58;53.53;102168.56;10547313;28;20043;-87
2023/09/27 10:43:43;;;;;;;3.47;1.90;;;;;;;17.62;52.95;102150.22;10511150;28;20045;-84
2023/09/27 10:48:53;;;;;;;2.72;1.60;;;;;;;17.62;53.94;102147.44;10530633;28;20064;-88
2023/09/27 10:53:55;;;;;;;3.63;2.33;;;;;;;17.64;54.76;102142.41;10498755;28;20037;-84
2023/09/27 10:58:58;;;;;;;5.05;2.00;;;;;;;17.42;55.84;102145.66;10535890;28;20040;-84
2023/09/27 11:04:01;;;;;;;3.58;1.85;;;;;;;17.37;56.62;102131.84;10545343;28;20043;-84
2023/09/27 11:09:04;;;;;;;5.03;2.03;;;;;;;17.35;56.58;102116.56;10532353;28;20040;-84
2023/09/27 11:14:07;;;;;;;3.90;2.03;;;;;;;17.27;56.89;102100.56;10546145;28;20074;-84
2023/09/27 11:19:10;;;;;;;2.85;1.70;;;;;;;17.28;57.03;102083.63;10527101;28;20044;-83
2023/09/27 11:24:12;;;;;;;2.58;1.67;;;;;;;17.27;57.83;102075.59;10521779;28;20629;-83
2023/09/27 11:29:16;;;;;;;4.43;1.70;;;;;;;17.24;57.49;102076.19;10503149;28;20037;-84
2023/09/27 11:34:20;;;;;;;4.32;2.22;;;;;;;17.35;57.27;102067.47;10527706;28;20130;-85
2023/09/27 11:39:27;;;;;;;2.22;1.55;;;;;;;17.43;56.35;102068.78;10521167;28;20052;-85
2023/09/27 11:44:30;;;;;;;3.65;1.60;;;;;;;17.45;56.31;102055.44;10512835;28;20051;-84
2023/09/27 11:49:33;;;;;;;3.00;1.65;;;;;;;17.68;56.18;102054.66;10512465;28;20135;-87
2023/09/27 11:54:41;;;;;;;2.38;1.45;;;;;;;17.51;56.77;102051.50;10475770;28;20048;-84
2023/09/27 11:59:44;;;;;;;3.67;1.83;;;;;;;17.56;56.69;102051.47;10493260;28;20036;-84
2023/09/27 12:04:46;;;;;;;1.60;1.30;;;;;;;17.62;56.22;102050.28;10522570;28;20040;-87
2023/09/27 12:09:48;;;;;;;2.90;2.03;;;;;;;17.89;55.32;102044.19;10522436;28;20036;-84
2023/09/27 12:14:52;;;;;;;7.30;1.98;;;;;;;17.97;55.09;102037.13;10519536;28;20048;-84
2023/09/27 12:19:54;;;;;;;3.08;1.73;;;;;;;17.97;55.07;102031.56;10507687;28;20069;-87
2023/09/27 12:24:56;;;;;;;3.60;1.70;;;;;;;17.95;55.70;102026.31;10522294;28;20481;-83
2023/09/27 12:30:00;;;;;;;2.75;1.48;;;;;;;17.76;56.15;102019.88;10496630;28;20438;-88
2023/09/27 12:35:03;;;;;;;3.75;2.22;;;;;;;17.91;56.06;102016.09;10480522;28;20135;-86
2023/09/27 12:40:07;;;;;;;4.90;1.73;;;;;;;17.87;56.59;102012.25;10489249;28;20040;-88
2023/09/27 12:45:10;;;;;;;3.75;2.05;;;;;;;17.82;56.78;102004.81;10517920;28;20041;-82
2023/09/27 12:50:12;;;;;;;4.68;2.00;;;;;;;17.76;57.42;102006.84;10509435;28;20035;-83
2023/09/27 12:55:14;;;;;;;3.47;1.55;;;;;;;17.81;57.67;102000.38;10535756;28;20055;-82
2023/09/27 13:00:29;;;;;;;3.05;1.73;;;;;;;18.00;57.40;101989.31;10506236;28;20477;-84
2023/09/27 13:12:57;;;;;;;;;;;;;;;;;;;;;
2023/09/27 13:19:09;;;;;;;4.60;2.10;;;;;;;18.18;58.26;101969.03;10506138;28;20578;-84
2023/09/27 13:25:31;;;;;;;3.55;2.03;;;;;;;18.01;58.72;101965.97;10509816;28;20052;-84
2023/09/27 13:30:34;;;;;;;3.42;1.80;;;;;;;18.00;59.20;101953.19;10538354;28;20048;-87
2023/09/27 13:35:38;;;;;;;4.07;1.70;;;;;;;17.92;59.83;101932.50;10490123;28;20037;-86
2023/09/27 13:41:07;;;;;;;3.50;1.67;;;;;;;17.92;60.02;101935.25;10498886;28;20386;-83
2023/09/27 13:53:13;;;;;;;3.72;1.60;;;;;;;17.53;60.86;101893.84;10496957;28;20048;-82
2023/09/27 13:58:16;;;;;;;3.85;1.70;;;;;;;17.41;61.49;101907.31;10530992;28;20048;-83
2023/09/27 14:09:06;;;;;;;3.28;1.92;;;;;;;17.37;62.06;101925.69;10555900;28;20106;-83
2023/09/27 14:14:10;;;;;;;5.20;1.95;;;;;;;17.35;62.17;101905.69;10509216;28;20071;-83
2023/09/27 14:19:15;;;;;;;4.80;1.92;;;;;;;17.36;62.18;101904.63;10550178;28;20040;-83
2023/09/27 14:24:31;;;;;;;2.72;1.73;;;;;;;17.41;62.43;101874.00;10530155;28;20033;-84
2023/09/27 14:29:39;;;;;;;4.43;1.88;;;;;;;17.29;62.13;101870.84;10479357;28;20044;-84
2023/09/27 14:34:47;;;;;;;3.75;2.10;;;;;;;17.14;62.45;101855.19;10488814;28;20044;-84
2023/09/27 14:40:02;;;;;;;3.15;1.73;;;;;;;17.19;62.33;101866.25;10486919;28;20037;-84
2023/09/27 14:45:15;;;;;;;3.78;2.03;;;;;;;17.13;62.55;101837.72;10517388;28;20043;-84
2023/09/27 14:50:45;;;;;;;2.60;1.20;;;;;;;17.10;63.49;101807.00;10508678;28;20440;-81
2023/09/27 14:55:47;;;;;;;3.10;1.80;;;;;;;17.03;63.43;101835.09;10495071;28;20045;-80
2023/09/27 15:00:50;;;;;;;6.97;1.80;;;;;;;17.01;63.83;101823.47;10528939;28;20037;-84
2023/09/27 15:05:53;;;;;;;3.55;1.75;;;;;;;17.02;63.69;101816.81;10500623;28;20043;-85
2023/09/27 15:10:55;;;;;;;3.47;1.90;;;;;;;17.08;63.96;101801.75;10485810;28;20037;-82
2023/09/27 15:15:58;;;;;;;4.28;1.95;;;;;;;17.04;64.34;101806.25;10549068;28;20048;-83
2023/09/27 15:21:03;;;;;;;4.18;1.98;;;;;;;16.99;65.05;101786.88;10535770;28;20036;-83
2023/09/27 15:26:06;;;;;;;1.88;1.45;;;;;;;16.96;65.41;101781.94;10523500;28;20033;-84
2023/09/27 15:31:09;;;;;;;1.92;1.65;;;;;;;16.95;65.59;101791.38;10509691;28;20050;-84
2023/09/27 15:36:11;;;;;;;4.97;2.10;;;;;;;16.91;65.58;101786.72;10522358;28;20049;-82
2023/09/27 15:41:18;;;;;;;6.03;2.38;;;;;;;16.85;66.27;101780.41;10507587;28;20760;-81
2023/09/27 15:46:20;;;;;;;3.28;1.80;;;;;;;16.85;66.29;101772.94;10498146;28;20051;-82
2023/09/27 15:51:26;;;;;;;4.85;2.03;;;;;;;16.77;67.37;101758.88;10529691;28;20033;-83
2023/09/27 15:56:28;;;;;;;5.88;2.13;;;;;;;16.74;67.07;101760.28;10491595;28;20070;-85
2023/09/27 16:01:30;;;;;;;2.78;1.67;;;;;;;16.70;67.72;101759.25;10495461;28;20032;-82
2023/09/27 16:06:33;;;;;;;6.05;2.17;;;;;;;16.67;68.41;101754.28;10501023;28;20499;-81
2023/09/27 16:11:35;;;;;;;6.28;2.22;;;;;;;16.64;68.73;101748.47;10492467;28;20041;-81
2023/09/27 16:16:37;;;;;;;2.85;1.85;;;;;;;16.62;68.93;101734.91;10519431;28;20044;-79
2023/09/27 16:21:41;;;;;;;2.60;1.85;;;;;;;16.58;69.41;101731.06;10505554;28;20040;-81
2023/09/27 16:26:48;;;;;;;3.45;2.13;;;;;;;16.57;69.35;101729.44;10499163;28;20055;-81
2023/09/27 16:31:51;;;;;;;5.13;2.05;;;;;;;16.59;69.49;101716.09;10494527;28;20082;-82
2023/09/27 16:36:54;;;;;;;4.22;2.13;;;;;;;16.55;70.09;101720.59;10539241;28;20040;-82
2023/09/27 16:41:57;;;;;;;4.28;2.60;;;;;;;16.52;70.47;101715.63;10540922;28;20387;-83
2023/09/27 16:46:59;;;;;;;4.22;2.30;;;;;;;16.50;70.64;101713.16;10521996;28;20036;-83
2023/09/27 16:52:03;;;;;;;3.00;1.90;;;;;;;16.44;71.51;101705.19;10523913;28;20583;-83
2023/09/27 16:57:06;;;;;;;3.83;2.10;;;;;;;16.41;71.88;101709.38;10509839;28;20057;-84
2023/09/27 17:02:09;;;;;;;6.35;2.10;;;;;;;16.34;71.71;101697.00;10523124;28;20410;-83
2023/09/27 17:07:12;;;;;;;4.30;2.17;;;;;;;16.35;72.62;101693.94;10493253;28;20520;-83
2023/09/27 17:12:14;;;;;;;3.30;1.92;;;;;;;16.33;72.86;101684.28;10541199;28;20040;-82
2023/09/27 17:17:17;;;;;;;3.50;2.17;;;;;;;16.34;73.17;101691.47;10548378;28;20040;-83
2023/09/27 17:22:19;;;;;;;5.75;1.88;;;;;;;16.35;73.48;101682.03;10496530;28;20047;-83
2023/09/27 17:27:25;;;;;;;3.67;2.33;;;;;;;16.32;73.57;101677.91;10505472;28;20049;-83
2023/09/27 17:32:31;;;;;;;4.32;2.45;;;;;;;16.31;73.59;101675.41;10539272;28;20036;-84
2023/09/27 17:37:34;;;;;;;5.10;2.20;;;;;;;16.33;73.75;101676.81;10540661;28;20416;-84
2023/09/27 17:42:38;;;;;;;4.63;1.88;;;;;;;16.35;73.46;101662.66;10516066;28;20044;-82
2023/09/27 17:47:48;;;;;;;3.75;2.17;;;;;;;16.35;74.04;101649.63;10511617;28;20037;-82
2023/09/27 17:53:04;;;;;;;3.35;2.00;;;;;;;16.38;74.04;101640.72;10465585;28;20496;-83
2023/09/27 17:58:07;;;;;;;3.75;1.88;;;;;;;16.43;73.97;101629.56;10509044;28;20495;-82
2023/09/27 18:03:10;;;;;;;4.38;1.83;;;;;;;16.44;73.74;101602.69;10536263;28;20047;-88
2023/09/27 18:08:17;;;;;;;2.10;1.88;;;;;;;16.47;73.16;101602.09;10528077;28;20051;-89
2023/09/27 18:13:22;;;;;;;4.03;1.75;;;;;;;16.43;73.65;101578.88;10517040;28;20048;-87
2023/09/27 18:18:33;;;;;;;2.35;1.92;;;;;;;16.33;74.44;101574.31;10509650;28;20096;-86
2023/09/27 18:23:37;;;;;;;4.22;2.08;;;;;;;16.35;74.02;101576.78;10482635;28;20047;-82
2023/09/27 18:28:40;;;;;;;3.53;2.08;;;;;;;16.33;74.40;101568.78;10528529;28;20037;-86
2023/09/27 18:34:31;;;;;;;6.35;2.45;;;;;;;16.28;74.28;101558.56;10508802;28;20037;-87
2023/09/27 18:39:43;;;;;;;3.30;1.45;;;;;;;16.31;74.24;101557.13;10941581;22;20109;-84
2023/09/27 18:44:48;;;;;;;3.88;2.05;;;;;;;16.27;74.03;101547.78;10524220;28;20036;-84
2023/09/27 18:49:52;;;;;;;4.22;1.95;;;;;;;16.27;74.23;101545.00;10544282;28;20047;-85
2023/09/27 18:54:55;;;;;;;4.75;2.00;;;;;;;16.22;74.86;101562.53;10508400;28;20050;-87
2023/09/27 18:59:58;;;;;;;3.45;2.13;;;;;;;16.18;74.59;101544.03;10568045;28;20410;-86
2023/09/27 19:05:00;;;;;;;4.43;2.10;;;;;;;16.25;74.55;101547.25;10584738;28;20036;-82
2023/09/27 19:10:06;;;;;;;4.75;2.22;;;;;;;16.23;75.00;101538.44;10566230;28;20032;-84
2023/09/27 19:15:10;;;;;;;4.00;2.00;;;;;;;16.21;75.14;101530.41;10584326;28;20066;-82
2023/09/27 19:20:14;;;;;;;3.47;2.20;;;;;;;16.20;74.82;101531.53;10565668;28;20036;-84
2023/09/27 19:25:19;;;;;;;3.90;2.20;;;;;;;16.25;75.14;101516.78;10570155;28;20040;-88
2023/09/27 19:30:25;;;;;;;7.25;2.00;;;;;;;16.23;75.16;101519.03;10519528;28;20066;-82
2023/09/27 19:35:28;;;;;;;3.92;1.95;;;;;;;16.24;74.88;101506.84;10565408;28;20410;-83
2023/09/27 19:40:30;;;;;;;7.35;2.47;;;;;;;16.27;74.85;101504.28;10557647;28;20042;-83
2023/09/27 19:45:34;;;;;;;2.92;1.92;;;;;;;16.31;74.84;101489.84;10577595;28;20039;-84
2023/09/27 19:50:45;;;;;;;4.60;2.33;;;;;;;16.38;74.72;101482.81;10553083;28;20043;-83
2023/09/27 19:55:49;;;;;;;2.45;2.03;;;;;;;16.37;74.69;101475.63;10580671;28;20052;-84
2023/09/27 20:00:52;;;;;;;4.35;2.20;;;;;;;16.39;74.66;101478.94;10565523;28;20507;-84
2023/09/27 20:05:54;;;;;;;4.03;2.60;;;;;;;16.36;75.09;101468.44;10584241;28;20036;-84
2023/09/27 20:10:57;;;;;;;3.75;2.28;;;;;;;16.34;75.23;101458.81;10566766;28;20063;-85
2023/09/27 20:16:00;;;;;;;3.88;2.10;;;;;;;16.41;75.27;101454.53;10566386;28;20524;-84
2023/09/27 20:21:04;;;;;;;2.55;2.00;;;;;;;16.37;75.76;101442.41;10551606;28;20040;-86
2023/09/27 20:26:07;;;;;;;4.90;2.25;;;;;;;16.32;76.08;101448.03;10568296;28;20055;-85
2023/09/27 20:38:44;;;;;;;3.45;1.88;;;;;;;16.37;76.75;101452.66;10397360;28;20052;-86
2023/09/27 20:43:48;;;;;;;3.08;2.45;;;;;;;16.34;76.58;101440.22;10550687;28;20054;-89
2023/09/27 20:48:52;;;;;;;4.03;2.42;;;;;;;16.33;77.59;101446.06;10533891;28;20032;-85
2023/09/27 20:53:54;;;;;;;4.10;2.40;;;;;;;16.32;78.19;101439.72;10543351;28;20042;-85
2023/09/27 20:58:57;;;;;;;4.93;2.00;;;;;;;16.35;78.10;101449.38;10537647;28;20047;-84
2023/09/27 21:04:03;;;;;;;2.55;1.60;;;;;;;16.35;77.92;101435.53;10530366;28;20034;-85
2023/09/27 21:09:10;;;;;;;2.65;2.10;;;;;;;16.31;78.41;101435.28;10541562;28;20036;-84
2023/09/27 21:14:12;;;;;;;3.75;2.13;;;;;;;16.22;78.76;101423.25;10564624;28;20050;-85
2023/09/27 21:19:17;;;;;;;2.25;1.85;;;;;;;16.07;79.23;101409.63;10550458;28;20043;-83
2023/09/27 21:24:20;;;;;;;2.45;1.90;;;;;;;15.98;80.01;101413.06;10565058;28;20050;-84
2023/09/27 21:29:25;;;;;;;4.32;2.15;;;;;;;15.95;80.49;101424.72;10551059;28;20044;-84
2023/09/27 21:34:27;;;;;;;4.45;1.73;;;;;;;15.90;80.72;101433.09;10554714;28;20036;-84
2023/09/27 21:39:29;;;;;;;2.40;1.67;;;;;;;15.93;81.42;101421.44;10583488;28;20044;-84
2023/09/27 21:44:34;;;;;;;2.20;1.75;;;;;;;15.95;81.38;101413.66;10545412;28;20033;-84
2023/09/27 21:49:38;;;;;;;4.30;2.00;;;;;;;16.01;81.89;101417.19;10585782;28;20047;-85
2023/09/27 21:54:41;;;;;;;3.45;2.05;;;;;;;16.04;81.87;101416.59;10589539;28;20040;-84
2023/09/27 21:59:43;;;;;;;2.15;1.95;;;;;;;15.97;82.52;101416.97;10547383;28;20441;-85
2023/09/27 22:04:46;;;;;;;4.25;2.10;;;;;;;16.00;82.44;101421.06;10553438;28;20065;-84
2023/09/27 22:09:48;;;;;;;3.38;2.08;;;;;;;16.05;82.66;101432.06;10579845;28;20036;-84
2023/09/27 22:14:51;;;;;;;2.92;2.13;;;;;;;16.11;82.64;101438.34;10586534;28;20042;-85
2023/09/27 22:19:54;;;;;;;3.90;2.30;;;;;;;16.06;83.34;101446.72;10570660;28;20047;-85
2023/09/27 22:24:56;;;;;;;3.90;2.13;;;;;;;16.10;83.32;101442.25;10585709;28;20131;-84
2023/09/27 22:29:59;;;;;;;2.95;1.83;;;;;;;16.06;83.68;101441.19;10579610;28;20552;-84
2023/09/27 22:35:08;;;;;;;3.65;2.03;;;;;;;16.11;84.10;101438.34;10580824;28;20130;-84
2023/09/27 22:40:17;;;;;;;3.13;2.22;;;;;;;16.06;84.15;101430.13;10581426;28;20139;-85
2023/09/27 22:45:31;;;;;;;3.15;2.25;;;;;;;16.10;84.18;101442.25;10569322;28;20047;-84
2023/09/27 22:50:45;;;;;;;5.13;2.83;;;;;;;16.06;84.28;101432.88;10567722;28;20514;-84
2023/09/27 22:55:57;;;;;;;3.85;2.72;;;;;;;16.05;84.90;101439.56;10587451;28;20040;-84
2023/09/27 23:01:20;;;;;;;3.88;2.85;;;;;;;15.93;85.70;101429.72;10567302;28;20414;-85
2023/09/27 23:06:23;;;;;;;5.47;2.88;;;;;;;15.95;86.13;101440.50;10589766;28;20491;-85
2023/09/27 23:11:28;;;;;;;4.13;2.95;;;;;;;15.96;86.47;101448.50;10587819;28;20039;-83
2023/09/27 23:16:49;;;;;;;4.63;2.97;;;;;;;15.89;87.47;101445.28;10586012;28;20058;-84
2023/09/27 23:21:56;;;;;;;4.35;3.00;;;;;;;15.85;87.96;101449.78;10567953;28;20032;-85
2023/09/27 23:32:30;;;;;;;5.65;2.83;;;;;;;15.91;88.37;101445.81;10585843;28;19942;-84
2023/09/27 23:37:31;;;;;;;6.65;3.38;;;;;;;15.84;88.71;101444.53;10580816;28;20058;-84
2023/09/27 23:42:42;;;;;;;6.28;3.42;;;;;;;15.83;89.37;101443.72;10586169;28;20054;-85
2023/09/27 23:47:49;;;;;;;7.32;3.20;;;;;;;15.73;90.67;101431.94;10566007;28;20039;-85
2023/09/27 23:52:53;;;;;;;3.97;2.80;;;;;;;15.74;90.17;101434.41;10567724;28;20044;-84
2023/09/27 23:58:03;;;;;;;5.95;3.67;;;;;;;15.65;91.39;101439.81;10561781;28;20036;-84
